Somerville, Massachusetts
Current Conditions -  °F | °C
As of 9:54 AM on Wednesday 22 Oct 2014 (Local Time) from KBOS Reporting Station
Drizzle Drizzle  
Wind Chill: 54°   Ceiling: 1100
Heat Index: 54°   Visibility: 1.2mi
Dew Point: 52°   Wind: 22mph
Humidity: 93%   Direction: 30°NNE
Pressure: 30.01"   Gusts: 33mph
Location:  42.39°N, 71.1°W
Report Text: KBOS 221354Z 03019G29KT 1 1/4SM -DZ BR OVC011 12/11 A3001 RMK AO2 PK WND 02029/1350 SFC VIS 3 RAE04DZB04 SLP163 P0002 T01220111
Loading
Personal Weather Stations






























Interactive Weather Map
Tropical Storm Tracking
New forecast layout! Learn more

10-Day Weather Forecast

Advertisements
Track Severe Weather on mobile